Time;durP1;ratioP1;P1;durP2;ratioP2;P2;SDS_P1;SDS_P2;PMS_P1;PMS_P2;Temp;Humidity;BMP_temperature;BMP_pressure;BME280_temperature;BME280_humidity;BME280_pressure;Samples;Min_cycle;Max_cycle;Signal;HPM_P1;HPM_P2
2023/09/23 00:02:09;;;;;;;0.93;0.75;;;14.50;99.90;;;;;;5038982;28;20209;-65
2023/09/23 00:04:37;;;;;;;1.13;0.80;;;14.50;99.90;;;;;;5040577;28;20176;-65
2023/09/23 00:07:06;;;;;;;0.95;0.75;;;14.50;99.90;;;;;;5038700;28;20185;-65
2023/09/23 00:09:31;;;;;;;0.75;0.75;;;14.50;99.90;;;;;;5038432;28;20192;-65
2023/09/23 00:12:00;;;;;;;0.85;0.70;;;14.50;99.90;;;;;;5040313;28;20201;-65
2023/09/23 00:14:26;;;;;;;0.60;0.60;;;14.50;99.90;;;;;;5035348;28;20204;-65
2023/09/23 00:16:52;;;;;;;0.80;0.70;;;14.50;99.90;;;;;;5071859;28;20189;-65
2023/09/23 00:19:17;;;;;;;0.70;0.60;;;14.50;99.90;;;;;;5040062;28;20193;-65
2023/09/23 00:21:43;;;;;;;0.85;0.77;;;14.50;99.90;;;;;;5042558;28;20200;-65
2023/09/23 00:24:11;;;;;;;0.60;0.60;;;14.60;99.90;;;;;;5041334;28;20212;-65
2023/09/23 00:26:39;;;;;;;0.70;0.70;;;14.50;99.90;;;;;;5047152;28;20298;-72
2023/09/23 00:29:04;;;;;;;2.47;1.10;;;14.60;99.90;;;;;;5040450;28;20198;-72
2023/09/23 00:31:30;;;;;;;1.20;0.82;;;14.60;99.90;;;;;;5072629;28;20288;-73
2023/09/23 00:33:56;;;;;;;1.20;1.02;;;14.60;99.90;;;;;;5039085;28;20193;-74
2023/09/23 00:36:24;;;;;;;1.13;0.85;;;14.60;99.90;;;;;;5038826;28;20220;-73
2023/09/23 00:38:50;;;;;;;0.80;0.75;;;14.60;99.90;;;;;;5040365;28;20205;-73
2023/09/23 00:41:18;;;;;;;1.20;0.60;;;14.60;99.90;;;;;;5044610;28;20303;-74
2023/09/23 00:43:47;;;;;;;1.25;0.70;;;14.60;99.90;;;;;;5038949;28;20166;-73
2023/09/23 00:46:16;;;;;;;0.60;0.60;;;14.60;99.90;;;;;;5040026;28;20185;-75
2023/09/23 00:48:48;;;;;;;0.70;0.60;;;14.50;99.90;;;;;;5040550;28;20173;-76
2023/09/23 00:51:15;;;;;;;0.90;0.70;;;14.60;99.90;;;;;;5041435;28;20251;-73
2023/09/23 00:53:44;;;;;;;1.90;0.77;;;14.50;99.90;;;;;;5041031;28;20180;-73
2023/09/23 00:56:18;;;;;;;1.02;0.77;;;14.40;99.90;;;;;;5040567;28;20181;-73
2023/09/23 00:58:50;;;;;;;0.80;0.60;;;14.40;99.90;;;;;;5041290;28;20232;-74
2023/09/23 01:01:21;;;;;;;1.15;0.90;;;14.30;99.90;;;;;;5042589;28;20234;-74
2023/09/23 01:03:47;;;;;;;1.17;0.80;;;14.30;99.90;;;;;;5042717;28;20208;-74
2023/09/23 01:06:16;;;;;;;0.90;0.70;;;14.30;99.90;;;;;;5039222;28;20196;-75
2023/09/23 01:08:43;;;;;;;1.20;0.77;;;14.20;99.90;;;;;;5046851;28;20268;-73
2023/09/23 01:11:13;;;;;;;1.08;0.80;;;14.20;99.90;;;;;;5039667;28;20188;-71
2023/09/23 01:13:44;;;;;;;1.40;0.95;;;14.10;99.90;;;;;;5054044;28;20265;-74
2023/09/23 01:16:15;;;;;;;1.90;1.00;;;14.10;99.90;;;;;;5039106;28;20350;-73
2023/09/23 01:18:49;;;;;;;1.38;0.70;;;14.00;99.90;;;;;;5041750;28;20231;-74
2023/09/23 01:21:23;;;;;;;1.10;0.80;;;14.00;99.90;;;;;;5041866;28;20243;-75
2023/09/23 01:23:49;;;;;;;1.33;0.77;;;13.90;99.90;;;;;;5037457;28;20182;-72
2023/09/23 01:26:17;;;;;;;2.08;0.82;;;13.80;99.90;;;;;;5038640;28;20184;-74
2023/09/23 01:28:43;;;;;;;0.60;0.60;;;13.80;99.90;;;;;;5040584;28;20177;-74
2023/09/23 01:31:11;;;;;;;1.05;0.90;;;13.80;99.90;;;;;;5039356;28;20173;-74
2023/09/23 01:33:38;;;;;;;2.05;0.93;;;13.70;99.90;;;;;;5078177;28;20205;-74
2023/09/23 01:36:05;;;;;;;0.82;0.77;;;13.70;99.90;;;;;;5043083;28;20212;-73
2023/09/23 01:38:33;;;;;;;1.02;0.80;;;13.60;99.90;;;;;;5046304;28;20197;-74
2023/09/23 01:41:04;;;;;;;1.95;0.93;;;13.60;99.90;;;;;;5039007;28;20217;-70
2023/09/23 01:43:32;;;;;;;1.20;0.90;;;13.50;99.90;;;;;;5042172;28;20205;-77
2023/09/23 01:46:03;;;;;;;1.15;0.90;;;13.50;99.90;;;;;;5038428;28;20173;-75
2023/09/23 01:48:29;;;;;;;2.13;1.00;;;13.50;99.90;;;;;;5040400;28;20205;-75
2023/09/23 01:50:58;;;;;;;1.10;1.00;;;13.50;99.90;;;;;;5039922;28;20189;-77
2023/09/23 01:53:26;;;;;;;1.67;1.00;;;13.50;99.90;;;;;;5037463;28;20272;-74
2023/09/23 01:55:52;;;;;;;0.90;0.80;;;13.50;99.90;;;;;;5037470;28;20192;-76
2023/09/23 01:58:24;;;;;;;0.90;0.80;;;13.50;99.90;;;;;;5038166;28;20275;-74
2023/09/23 02:00:55;;;;;;;1.00;0.90;;;13.50;99.90;;;;;;5070469;28;20205;-74
2023/09/23 02:03:23;;;;;;;1.38;0.90;;;13.50;99.90;;;;;;5040419;28;20264;-73
2023/09/23 02:05:49;;;;;;;1.23;0.80;;;13.40;99.90;;;;;;5035021;28;20405;-74
2023/09/23 02:08:17;;;;;;;1.23;0.80;;;13.50;99.90;;;;;;5060703;28;20201;-74
2023/09/23 02:10:44;;;;;;;1.10;0.73;;;13.40;99.90;;;;;;5038349;28;20178;-76
2023/09/23 02:13:10;;;;;;;2.30;0.70;;;13.40;99.90;;;;;;5038285;28;20181;-75
2023/09/23 02:15:36;;;;;;;0.75;0.73;;;13.40;99.90;;;;;;5053088;28;20204;-74
2023/09/23 02:18:02;;;;;;;1.48;0.80;;;13.30;99.90;;;;;;5039270;28;20177;-76
2023/09/23 02:20:32;;;;;;;1.35;0.77;;;13.30;99.90;;;;;;5042358;28;20244;-74
2023/09/23 02:22:58;;;;;;;1.50;0.90;;;13.30;99.90;;;;;;5041234;28;20217;-76
2023/09/23 02:25:26;;;;;;;2.08;1.00;;;13.20;99.90;;;;;;5070471;28;20197;-77
2023/09/23 02:27:52;;;;;;;1.55;0.90;;;13.30;99.90;;;;;;5037567;28;20193;-74
2023/09/23 02:30:18;;;;;;;2.35;0.80;;;13.30;99.90;;;;;;5037041;28;20201;-75
2023/09/23 02:32:45;;;;;;;2.22;0.88;;;13.20;99.90;;;;;;5038954;28;20235;-78
2023/09/23 02:35:16;;;;;;;1.10;0.80;;;13.20;99.90;;;;;;5038154;28;20276;-75
2023/09/23 02:37:48;;;;;;;1.13;0.82;;;13.10;99.90;;;;;;5039049;28;20199;-76
2023/09/23 02:40:14;;;;;;;1.10;0.80;;;13.20;99.90;;;;;;5035738;28;20204;-75
2023/09/23 02:42:48;;;;;;;1.10;0.90;;;13.20;99.90;;;;;;5038911;28;20201;-74
2023/09/23 02:45:17;;;;;;;1.13;0.80;;;13.10;99.90;;;;;;5038831;28;20200;-75
2023/09/23 02:47:46;;;;;;;1.05;0.70;;;13.10;99.90;;;;;;5038347;28;20204;-71
2023/09/23 02:50:17;;;;;;;1.23;0.90;;;13.10;99.90;;;;;;5068288;28;20186;-75
2023/09/23 02:52:48;;;;;;;1.58;0.95;;;13.20;99.90;;;;;;5039801;28;20177;-75
2023/09/23 02:55:19;;;;;;;1.33;0.98;;;13.10;99.90;;;;;;5040323;28;20201;-76
2023/09/23 02:57:49;;;;;;;1.23;0.80;;;13.10;99.90;;;;;;5038998;28;20207;-76
2023/09/23 03:00:29;;;;;;;1.38;0.63;;;13.10;99.90;;;;;;5036778;28;21160;-75
2023/09/23 03:02:57;;;;;;;1.10;0.70;;;13.10;99.90;;;;;;5035935;28;20194;-75
2023/09/23 03:05:31;;;;;;;1.30;0.80;;;13.10;99.90;;;;;;5035564;28;20166;-74
2023/09/23 03:07:58;;;;;;;4.03;1.00;;;13.10;99.90;;;;;;5037341;28;20174;-75
2023/09/23 03:10:32;;;;;;;1.35;0.93;;;13.10;99.90;;;;;;5067291;28;20295;-74
2023/09/23 03:13:07;;;;;;;1.30;0.77;;;13.10;99.90;;;;;;5037419;28;20177;-71
2023/09/23 03:15:37;;;;;;;2.78;0.90;;;13.10;99.90;;;;;;5041417;28;20323;-74
2023/09/23 03:18:05;;;;;;;2.70;0.60;;;13.10;99.90;;;;;;5053115;28;20185;-71
2023/09/23 03:20:31;;;;;;;1.13;0.82;;;13.10;99.90;;;;;;5035050;28;20320;-75
2023/09/23 03:22:57;;;;;;;1.48;0.90;;;13.10;99.90;;;;;;5038401;28;20211;-74
2023/09/23 03:25:23;;;;;;;0.82;0.70;;;13.10;99.90;;;;;;5033321;28;20205;-75
2023/09/23 03:27:52;;;;;;;1.35;0.77;;;13.10;99.90;;;;;;5048476;28;20194;-75
2023/09/23 03:30:19;;;;;;;1.42;0.70;;;13.00;99.90;;;;;;5068261;28;20192;-74
2023/09/23 03:32:49;;;;;;;0.65;0.63;;;13.00;99.90;;;;;;5081938;28;20177;-73
2023/09/23 03:35:20;;;;;;;2.50;0.98;;;13.00;99.90;;;;;;5035434;28;20201;-75
2023/09/23 03:37:55;;;;;;;1.13;0.73;;;13.00;99.90;;;;;;5073280;28;20288;-75
2023/09/23 03:40:24;;;;;;;1.25;0.80;;;13.00;99.90;;;;;;5040974;28;20209;-75
2023/09/23 03:42:53;;;;;;;2.85;0.95;;;13.00;99.90;;;;;;5042124;28;20190;-74
2023/09/23 03:45:19;;;;;;;1.45;1.10;;;13.10;99.90;;;;;;5054024;28;20264;-73
2023/09/23 03:47:46;;;;;;;3.63;1.00;;;13.00;99.90;;;;;;5051484;28;20176;-74
2023/09/23 03:50:15;;;;;;;1.98;0.77;;;13.00;99.90;;;;;;5051135;28;20225;-73
2023/09/23 03:52:45;;;;;;;1.95;0.70;;;13.00;99.90;;;;;;5039371;28;20180;-72
2023/09/23 03:55:13;;;;;;;2.35;0.88;;;13.00;99.90;;;;;;5072940;28;20181;-75
2023/09/23 03:57:39;;;;;;;1.52;0.88;;;13.10;99.90;;;;;;5041252;28;20272;-75
2023/09/23 04:00:16;;;;;;;2.55;0.80;;;13.10;99.90;;;;;;5048500;28;20205;-73
2023/09/23 04:02:42;;;;;;;2.30;1.02;;;13.10;99.90;;;;;;5035961;28;20400;-65
2023/09/23 04:05:14;;;;;;;1.77;0.75;;;13.10;99.90;;;;;;5054419;28;20220;-69
2023/09/23 04:07:46;;;;;;;1.48;0.90;;;13.10;99.90;;;;;;5058914;28;20175;-68
2023/09/23 04:10:11;;;;;;;1.02;0.82;;;13.20;99.90;;;;;;5082820;28;20178;-71
2023/09/23 04:12:41;;;;;;;1.83;0.80;;;13.20;99.90;;;;;;5058140;28;20197;-68
2023/09/23 04:15:09;;;;;;;1.10;0.77;;;13.20;99.90;;;;;;5059351;28;20192;-65
2023/09/23 04:17:37;;;;;;;1.25;0.82;;;13.30;99.90;;;;;;5055859;28;20220;-73
2023/09/23 04:20:10;;;;;;;2.88;0.90;;;13.30;99.90;;;;;;5034935;28;20205;-73
2023/09/23 04:22:37;;;;;;;2.53;1.00;;;13.30;99.90;;;;;;5056395;28;20178;-76
2023/09/23 04:25:05;;;;;;;1.45;0.80;;;13.40;99.90;;;;;;5049667;28;20174;-75
2023/09/23 04:27:32;;;;;;;1.25;0.77;;;13.30;99.90;;;;;;5031245;28;20209;-73
2023/09/23 04:29:59;;;;;;;2.83;0.93;;;13.40;99.90;;;;;;5047652;28;20177;-73
2023/09/23 04:32:29;;;;;;;1.35;0.88;;;13.30;99.90;;;;;;5040981;28;20192;-74
2023/09/23 04:34:56;;;;;;;2.05;1.15;;;13.40;99.90;;;;;;5041491;28;20207;-74
2023/09/23 04:37:23;;;;;;;1.75;0.90;;;13.40;99.90;;;;;;5040625;28;20220;-76
2023/09/23 04:39:52;;;;;;;1.23;0.80;;;13.40;99.90;;;;;;5040035;28;20237;-74
2023/09/23 04:42:18;;;;;;;1.55;0.90;;;13.40;99.90;;;;;;5039598;28;20188;-74
2023/09/23 04:44:46;;;;;;;1.85;0.80;;;13.40;99.90;;;;;;5038583;28;20222;-74
2023/09/23 04:47:12;;;;;;;2.58;1.02;;;13.40;99.90;;;;;;5039204;28;20181;-72
2023/09/23 04:49:40;;;;;;;2.55;0.88;;;13.40;99.90;;;;;;5040184;28;20181;-74
2023/09/23 04:52:06;;;;;;;1.63;0.80;;;13.40;99.90;;;;;;5040575;28;20209;-68
2023/09/23 04:54:35;;;;;;;1.58;0.80;;;13.40;99.90;;;;;;5040350;28;20286;-74
2023/09/23 04:57:03;;;;;;;1.17;0.80;;;13.30;99.90;;;;;;5039165;28;20186;-72
2023/09/23 04:59:29;;;;;;;1.52;0.80;;;13.30;99.90;;;;;;5040948;28;20323;-74
2023/09/23 05:01:56;;;;;;;2.45;0.95;;;13.30;99.90;;;;;;5038870;28;20177;-71
2023/09/23 05:04:26;;;;;;;1.65;0.90;;;13.20;99.90;;;;;;5041531;28;20193;-76
2023/09/23 05:06:56;;;;;;;1.20;0.70;;;13.20;99.90;;;;;;5040442;28;20200;-75
2023/09/23 05:09:25;;;;;;;1.60;1.10;;;13.20;99.90;;;;;;5038975;28;20196;-74
2023/09/23 05:11:53;;;;;;;1.02;0.70;;;13.20;99.90;;;;;;5038263;28;20204;-72
2023/09/23 05:14:22;;;;;;;1.67;0.80;;;13.20;99.90;;;;;;5040833;28;20193;-71
2023/09/23 05:16:50;;;;;;;1.17;0.95;;;13.20;99.90;;;;;;5044190;28;20185;-73
2023/09/23 05:19:16;;;;;;;1.63;0.93;;;13.20;99.90;;;;;;5040363;28;20177;-73
2023/09/23 05:21:42;;;;;;;1.73;1.10;;;13.10;99.90;;;;;;5040352;28;20226;-72
2023/09/23 05:24:10;;;;;;;1.50;1.00;;;13.10;99.90;;;;;;5038649;28;20241;-74
2023/09/23 05:26:40;;;;;;;2.40;1.20;;;13.10;99.90;;;;;;5070834;28;20188;-72
2023/09/23 05:29:06;;;;;;;1.20;0.88;;;13.10;99.90;;;;;;5038962;28;20197;-72
2023/09/23 05:31:31;;;;;;;1.10;0.90;;;13.10;99.90;;;;;;5042084;28;20177;-72
2023/09/23 05:33:57;;;;;;;1.38;0.90;;;13.10;99.90;;;;;;5039472;28;20174;-75
2023/09/23 05:36:23;;;;;;;1.35;0.82;;;13.10;99.90;;;;;;5039338;28;20238;-74
2023/09/23 05:38:51;;;;;;;1.25;1.10;;;13.10;99.90;;;;;;5070906;28;20197;-74
2023/09/23 05:41:24;;;;;;;4.20;2.92;;;13.10;99.90;;;;;;5036468;28;20206;-73
2023/09/23 05:43:54;;;;;;;2.45;1.60;;;13.10;99.90;;;;;;5039826;28;20270;-73
2023/09/23 05:46:20;;;;;;;2.08;1.50;;;13.10;99.90;;;;;;5071618;28;20300;-74
2023/09/23 05:48:51;;;;;;;1.38;1.00;;;13.00;99.90;;;;;;5039432;28;20241;-74
2023/09/23 05:51:19;;;;;;;1.40;0.95;;;13.10;99.90;;;;;;5041445;28;20244;-74
2023/09/23 05:53:48;;;;;;;6.63;1.20;;;13.00;99.90;;;;;;5037412;28;21095;-74
2023/09/23 05:56:18;;;;;;;1.33;1.10;;;13.10;99.90;;;;;;5035854;28;20207;-72
2023/09/23 05:58:46;;;;;;;4.15;1.00;;;13.00;99.90;;;;;;5039470;28;20269;-75
2023/09/23 06:01:12;;;;;;;3.08;1.10;;;13.00;99.90;;;;;;5042575;28;20215;-72
2023/09/23 06:03:41;;;;;;;1.52;1.10;;;13.00;99.90;;;;;;5038164;28;20176;-72
2023/09/23 06:06:11;;;;;;;2.00;1.20;;;13.10;99.90;;;;;;5038230;28;20177;-73
2023/09/23 06:08:39;;;;;;;1.60;1.13;;;13.10;99.90;;;;;;5037623;28;20180;-74
2023/09/23 06:11:05;;;;;;;2.78;1.20;;;13.10;99.90;;;;;;5071213;28;20189;-74
2023/09/23 06:13:36;;;;;;;1.95;1.30;;;13.10;99.90;;;;;;5071462;28;20173;-72
2023/09/23 06:16:07;;;;;;;1.10;1.00;;;13.20;99.90;;;;;;5037419;28;20188;-74
2023/09/23 06:18:33;;;;;;;2.25;1.10;;;13.20;99.90;;;;;;5038011;28;20169;-74
2023/09/23 06:21:06;;;;;;;1.45;0.88;;;13.30;99.90;;;;;;5038258;28;20263;-74
2023/09/23 06:23:34;;;;;;;1.42;0.93;;;13.30;99.90;;;;;;5067890;28;20189;-73
2023/09/23 06:26:05;;;;;;;1.42;1.00;;;13.30;99.90;;;;;;5039244;28;20191;-74
2023/09/23 06:28:34;;;;;;;2.22;0.82;;;13.40;99.90;;;;;;5063196;28;20177;-71
2023/09/23 06:30:59;;;;;;;1.30;0.90;;;13.40;99.90;;;;;;5062694;28;20268;-74
2023/09/23 06:33:30;;;;;;;1.00;0.85;;;13.50;99.90;;;;;;5038138;28;20265;-74
2023/09/23 06:36:00;;;;;;;2.00;1.50;;;13.50;99.90;;;;;;5069382;28;20180;-73
2023/09/23 06:38:26;;;;;;;2.15;0.90;;;13.50;99.90;;;;;;5070835;28;20193;-73
2023/09/23 06:40:57;;;;;;;2.40;1.00;;;13.50;99.90;;;;;;5048311;28;20201;-77
2023/09/23 06:43:22;;;;;;;1.50;0.98;;;13.60;99.90;;;;;;5037540;28;20177;-76
2023/09/23 06:45:58;;;;;;;2.42;0.90;;;13.60;99.90;;;;;;5037866;28;20199;-78
2023/09/23 06:48:25;;;;;;;0.95;0.80;;;13.70;99.90;;;;;;5036665;28;20173;-76
2023/09/23 06:51:01;;;;;;;2.33;1.15;;;13.70;99.90;;;;;;5037685;28;20191;-76
2023/09/23 06:53:31;;;;;;;2.75;0.85;;;13.80;99.90;;;;;;5070931;28;20201;-75
2023/09/23 06:55:57;;;;;;;1.67;0.90;;;13.80;99.90;;;;;;5038309;28;20197;-72
2023/09/23 06:58:22;;;;;;;1.63;0.80;;;13.90;99.90;;;;;;5069351;28;20189;-74
2023/09/23 07:00:48;;;;;;;1.33;0.90;;;13.90;99.90;;;;;;5039143;28;20212;-76
2023/09/23 07:03:16;;;;;;;1.85;0.98;;;14.00;99.90;;;;;;5039639;28;20194;-76
2023/09/23 07:05:42;;;;;;;1.35;0.80;;;14.10;99.90;;;;;;5040832;28;20200;-76
2023/09/23 07:08:08;;;;;;;1.20;0.70;;;14.10;99.90;;;;;;5038021;28;20177;-76
2023/09/23 07:10:38;;;;;;;1.45;0.85;;;14.20;99.90;;;;;;5038478;28;20201;-72
2023/09/23 07:13:05;;;;;;;1.52;0.98;;;14.30;99.90;;;;;;5038938;28;20319;-77
2023/09/23 07:15:35;;;;;;;2.22;0.80;;;14.30;99.90;;;;;;5039696;28;20196;-74
2023/09/23 07:18:00;;;;;;;1.35;0.70;;;14.40;99.90;;;;;;5039100;28;20245;-76
2023/09/23 07:20:27;;;;;;;1.77;0.90;;;14.40;99.90;;;;;;5036674;28;20193;-74
2023/09/23 07:22:54;;;;;;;1.88;1.02;;;14.50;99.90;;;;;;5035872;28;20200;-76
2023/09/23 07:25:20;;;;;;;2.13;0.82;;;14.60;99.90;;;;;;5037495;28;20173;-76
2023/09/23 07:27:49;;;;;;;1.27;0.60;;;14.60;99.90;;;;;;5042182;28;20184;-75
2023/09/23 07:30:15;;;;;;;1.67;0.80;;;14.70;99.90;;;;;;5043680;28;20173;-75
2023/09/23 07:32:43;;;;;;;0.95;0.73;;;14.70;99.90;;;;;;5044992;28;20200;-74
2023/09/23 07:35:09;;;;;;;2.08;0.70;;;14.80;99.90;;;;;;5043597;28;20997;-76
2023/09/23 07:37:37;;;;;;;2.25;1.20;;;14.80;99.90;;;;;;5044151;28;21070;-78
2023/09/23 07:40:06;;;;;;;2.03;0.88;;;14.90;99.90;;;;;;5044553;28;20287;-72
2023/09/23 07:42:31;;;;;;;1.45;0.80;;;15.00;99.90;;;;;;5041375;28;20203;-74
2023/09/23 07:44:57;;;;;;;1.95;0.93;;;15.00;99.90;;;;;;5043698;28;20173;-75
2023/09/23 07:47:23;;;;;;;1.85;1.02;;;15.10;99.90;;;;;;5044741;28;20173;-74
2023/09/23 07:49:48;;;;;;;2.20;0.98;;;15.20;99.90;;;;;;5042510;28;20242;-75
2023/09/23 07:52:18;;;;;;;2.42;1.10;;;15.30;99.90;;;;;;5043612;28;20180;-75
2023/09/23 07:54:44;;;;;;;2.03;1.17;;;15.30;99.90;;;;;;5046007;28;20189;-74
2023/09/23 07:57:10;;;;;;;3.30;1.20;;;15.40;99.90;;;;;;5042482;28;20188;-72
2023/09/23 07:59:35;;;;;;;2.15;0.90;;;15.40;99.90;;;;;;5045306;28;20197;-75
2023/09/23 08:02:03;;;;;;;2.38;0.85;;;15.50;99.90;;;;;;5043243;28;20283;-74
2023/09/23 08:04:31;;;;;;;2.30;1.10;;;15.60;99.90;;;;;;5046605;28;20226;-74
2023/09/23 08:07:01;;;;;;;2.08;1.00;;;15.60;99.90;;;;;;5044063;28;20173;-73
2023/09/23 08:09:27;;;;;;;1.60;1.00;;;15.70;99.90;;;;;;5043735;28;20270;-75
2023/09/23 08:11:52;;;;;;;3.17;1.10;;;15.80;99.90;;;;;;5039858;28;20169;-74
2023/09/23 08:14:18;;;;;;;1.55;0.90;;;15.90;99.90;;;;;;5043722;28;20259;-75
2023/09/23 08:16:44;;;;;;;3.72;1.30;;;16.00;99.90;;;;;;5076448;28;20235;-73
2023/09/23 08:19:09;;;;;;;2.08;0.90;;;16.00;99.90;;;;;;5077185;28;20169;-74
2023/09/23 08:21:37;;;;;;;1.90;1.00;;;16.00;99.90;;;;;;5043496;28;20220;-74
2023/09/23 08:24:05;;;;;;;2.15;1.02;;;16.10;99.90;;;;;;5074030;28;20201;-76
2023/09/23 08:26:31;;;;;;;2.03;0.93;;;16.10;99.90;;;;;;5043309;28;20177;-75
2023/09/23 08:28:56;;;;;;;2.67;1.00;;;16.20;99.90;;;;;;5081171;28;20180;-74
2023/09/23 08:31:22;;;;;;;3.25;1.10;;;16.20;99.90;;;;;;5061948;28;20200;-74
2023/09/23 08:33:48;;;;;;;1.88;0.90;;;16.20;99.90;;;;;;5042805;28;20393;-72
2023/09/23 08:36:16;;;;;;;1.77;0.90;;;16.30;99.90;;;;;;5044071;28;20338;-64
2023/09/23 08:38:44;;;;;;;2.33;1.00;;;16.30;99.90;;;;;;5039124;28;20288;-64
2023/09/23 08:41:11;;;;;;;1.58;0.90;;;16.40;99.90;;;;;;5040156;28;20204;-65
2023/09/23 08:43:40;;;;;;;1.17;0.90;;;16.50;99.90;;;;;;5040205;28;20173;-65
2023/09/23 08:46:07;;;;;;;1.40;1.00;;;16.60;99.90;;;;;;5041881;28;20268;-65
2023/09/23 08:48:35;;;;;;;2.05;1.00;;;16.70;99.90;;;;;;5073123;28;20166;-64
2023/09/23 08:51:03;;;;;;;2.00;1.00;;;16.80;99.90;;;;;;5058589;28;20231;-65
2023/09/23 08:53:32;;;;;;;2.70;1.15;;;16.80;99.90;;;;;;5072878;28;20189;-66
2023/09/23 08:56:05;;;;;;;1.58;0.93;;;16.90;99.90;;;;;;5037844;28;20181;-65
2023/09/23 08:58:31;;;;;;;3.78;1.30;;;17.10;99.90;;;;;;5020355;28;20162;-65
2023/09/23 09:00:57;;;;;;;2.22;1.23;;;17.10;99.90;;;;;;5070728;28;20458;-65
2023/09/23 09:03:22;;;;;;;2.60;1.10;;;17.20;99.90;;;;;;5054368;28;20166;-65
2023/09/23 09:05:48;;;;;;;2.40;1.00;;;17.30;99.90;;;;;;5036344;28;20178;-65
2023/09/23 09:08:14;;;;;;;2.08;1.15;;;17.30;99.90;;;;;;5039166;28;20212;-65
2023/09/23 09:10:43;;;;;;;1.58;1.10;;;17.30;99.90;;;;;;5044081;28;20180;-65
2023/09/23 09:13:17;;;;;;;2.38;1.05;;;17.40;99.90;;;;;;5053290;28;20177;-66
2023/09/23 09:15:42;;;;;;;1.52;1.00;;;17.40;99.90;;;;;;5068616;28;20293;-65
2023/09/23 09:18:13;;;;;;;2.83;1.13;;;17.50;99.90;;;;;;5045555;28;20288;-67
2023/09/23 09:20:40;;;;;;;2.38;1.15;;;17.50;99.90;;;;;;5052293;28;20272;-66
2023/09/23 09:23:07;;;;;;;2.33;1.02;;;17.60;99.90;;;;;;5038909;28;20211;-66
2023/09/23 09:25:34;;;;;;;2.22;1.00;;;17.60;99.90;;;;;;5040888;28;20260;-66
2023/09/23 09:28:00;;;;;;;1.30;0.88;;;17.70;99.90;;;;;;5072705;28;20252;-66
2023/09/23 09:30:28;;;;;;;4.55;1.75;;;17.80;99.90;;;;;;5041397;28;20288;-66
2023/09/23 09:32:59;;;;;;;2.55;1.23;;;17.90;99.90;;;;;;5038290;28;20173;-65
2023/09/23 09:35:26;;;;;;;2.60;1.30;;;18.00;99.90;;;;;;5038808;28;20205;-67
2023/09/23 09:37:55;;;;;;;2.13;1.25;;;18.40;99.90;;;;;;5069200;28;20210;-66
2023/09/23 09:40:21;;;;;;;1.95;1.05;;;18.80;99.90;;;;;;5038770;28;20197;-65
2023/09/23 09:42:54;;;;;;;2.80;1.20;;;19.30;99.90;;;;;;5041255;28;20260;-67
2023/09/23 09:45:21;;;;;;;1.63;0.80;;;19.80;99.90;;;;;;5036131;28;20197;-66
2023/09/23 09:47:51;;;;;;;1.40;0.90;;;20.20;99.90;;;;;;5037272;28;20185;-67
2023/09/23 09:50:18;;;;;;;1.60;1.23;;;20.40;99.90;;;;;;5040464;28;20287;-67
2023/09/23 09:52:43;;;;;;;1.98;1.00;;;20.40;99.90;;;;;;5041393;28;20205;-67
2023/09/23 09:55:17;;;;;;;2.75;1.08;;;20.50;99.90;;;;;;5039290;28;20196;-67
2023/09/23 09:57:43;;;;;;;2.47;1.08;;;20.60;99.90;;;;;;5038704;28;20185;-67
2023/09/23 10:00:22;;;;;;;1.70;0.88;;;20.60;99.90;;;;;;5039167;28;20301;-67
2023/09/23 10:03:06;;;;;;;2.80;1.10;;;20.60;99.90;;;;;;5038086;28;20188;-67
2023/09/23 10:05:46;;;;;;;1.80;1.10;;;20.60;99.90;;;;;;5047054;28;20195;-67
2023/09/23 10:08:24;;;;;;;1.52;0.80;;;20.70;99.90;;;;;;5040403;28;20243;-67
2023/09/23 10:10:57;;;;;;;1.33;0.98;;;20.90;99.90;;;;;;5039483;28;20184;-69
2023/09/23 10:13:31;;;;;;;2.55;0.80;;;21.10;99.90;;;;;;5038236;28;20276;-68
2023/09/23 10:16:17;;;;;;;1.85;0.80;;;21.10;99.90;;;;;;5037639;28;20197;-68
2023/09/23 10:18:53;;;;;;;0.90;0.63;;;21.00;99.90;;;;;;5073414;28;20180;-68
2023/09/23 10:21:29;;;;;;;2.38;1.00;;;20.90;99.90;;;;;;5038145;28;20228;-68
2023/09/23 10:23:56;;;;;;;2.33;0.90;;;20.60;99.90;;;;;;5038550;28;20269;-68
2023/09/23 10:26:25;;;;;;;1.88;0.70;;;20.50;99.90;;;;;;5038044;28;20217;-67
2023/09/23 10:29:04;;;;;;;1.88;0.90;;;20.40;99.90;;;;;;5072114;28;20197;-68
2023/09/23 10:31:37;;;;;;;1.55;0.73;;;20.70;99.90;;;;;;5035169;28;20779;-68
2023/09/23 10:34:10;;;;;;;1.30;0.70;;;20.90;99.90;;;;;;5036220;28;20181;-68
2023/09/23 10:36:36;;;;;;;1.25;0.80;;;21.00;99.90;;;;;;5037461;28;20192;-67
2023/09/23 10:39:15;;;;;;;1.50;0.80;;;20.80;99.90;;;;;;5040466;28;20197;-67
2023/09/23 10:41:44;;;;;;;1.83;0.95;;;20.70;99.90;;;;;;5034930;28;20280;-68
2023/09/23 10:44:10;;;;;;;1.10;0.70;;;20.60;99.90;;;;;;5040740;28;20193;-68
2023/09/23 10:46:38;;;;;;;1.98;0.80;;;20.50;99.90;;;;;;5070030;28;20177;-68
2023/09/23 10:49:06;;;;;;;4.32;0.98;;;20.50;99.90;;;;;;5036089;28;20230;-69
2023/09/23 10:51:33;;;;;;;2.13;1.10;;;20.40;99.90;;;;;;5037613;28;20212;-68
2023/09/23 10:54:04;;;;;;;1.60;1.10;;;20.30;99.90;;;;;;5039170;28;20219;-68
2023/09/23 10:56:32;;;;;;;2.58;1.00;;;20.20;99.90;;;;;;5038242;28;20177;-69
2023/09/23 10:58:58;;;;;;;2.30;0.90;;;20.10;99.90;;;;;;5034739;28;20265;-67
2023/09/23 11:01:26;;;;;;;2.10;0.93;;;20.00;99.90;;;;;;5036137;28;20297;-66
2023/09/23 11:03:54;;;;;;;3.22;0.90;;;19.90;99.90;;;;;;5039132;28;20181;-67
2023/09/23 11:06:20;;;;;;;1.40;0.90;;;19.90;99.90;;;;;;5037639;28;20184;-67
2023/09/23 11:08:45;;;;;;;2.17;1.08;;;20.00;99.90;;;;;;5035570;28;20177;-67
2023/09/23 11:11:12;;;;;;;1.88;1.10;;;20.00;99.90;;;;;;5036966;28;20177;-67
2023/09/23 11:13:38;;;;;;;2.38;1.10;;;20.00;99.90;;;;;;5039272;28;20256;-66
2023/09/23 11:16:13;;;;;;;1.98;0.90;;;20.00;99.90;;;;;;5037807;28;20272;-67
2023/09/23 11:18:38;;;;;;;1.55;1.00;;;20.00;99.90;;;;;;5038565;28;20204;-66
2023/09/23 11:21:05;;;;;;;1.27;0.70;;;20.20;99.90;;;;;;5040589;28;20495;-66
2023/09/23 11:23:32;;;;;;;1.70;0.75;;;20.40;99.90;;;;;;5034462;28;20170;-66
2023/09/23 11:25:59;;;;;;;1.70;0.70;;;20.50;99.90;;;;;;5035355;28;20197;-65
2023/09/23 11:28:26;;;;;;;1.95;0.80;;;20.60;99.90;;;;;;5035796;28;20332;-66
2023/09/23 11:30:53;;;;;;;1.38;0.90;;;20.70;99.90;;;;;;5037496;28;20178;-66
2023/09/23 11:33:22;;;;;;;1.65;0.43;;;20.80;99.90;;;;;;5040428;28;20197;-65
2023/09/23 11:35:48;;;;;;;2.17;0.60;;;20.80;99.90;;;;;;5033373;28;20224;-65
2023/09/23 11:38:20;;;;;;;0.88;0.63;;;20.90;99.90;;;;;;5051003;28;20229;-65
2023/09/23 11:40:46;;;;;;;1.23;0.70;;;20.80;99.90;;;;;;5034702;28;20220;-66
2023/09/23 11:43:12;;;;;;;1.67;0.98;;;20.70;99.90;;;;;;5036478;28;20177;-66
2023/09/23 11:45:41;;;;;;;1.63;0.70;;;20.50;99.90;;;;;;5039030;28;20177;-66
2023/09/23 11:48:09;;;;;;;1.38;0.80;;;20.40;99.90;;;;;;5036671;28;21113;-66
2023/09/23 11:50:38;;;;;;;1.55;0.80;;;20.20;99.90;;;;;;5037569;28;20178;-65
2023/09/23 11:53:07;;;;;;;1.60;0.80;;;20.10;99.90;;;;;;5039933;28;20200;-66
2023/09/23 11:55:35;;;;;;;2.38;1.10;;;20.00;99.90;;;;;;5036340;28;20204;-65
2023/09/23 11:58:04;;;;;;;3.55;1.00;;;20.00;99.90;;;;;;5052573;28;20278;-66
2023/09/23 12:00:29;;;;;;;1.08;0.60;;;19.80;99.90;;;;;;5039950;28;20250;-65
2023/09/23 12:02:57;;;;;;;1.23;0.82;;;19.70;99.90;;;;;;5039123;28;20170;-66
2023/09/23 12:05:28;;;;;;;1.50;0.80;;;19.70;99.90;;;;;;5036493;28;20182;-66
2023/09/23 12:07:58;;;;;;;1.65;0.82;;;19.80;99.90;;;;;;5040242;28;20196;-66
2023/09/23 12:10:25;;;;;;;1.33;0.80;;;20.00;99.90;;;;;;5039339;28;20197;-66
2023/09/23 12:13:02;;;;;;;0.70;0.60;;;20.30;99.90;;;;;;5039630;28;20230;-66
2023/09/23 12:15:29;;;;;;;1.63;0.70;;;20.50;99.90;;;;;;5043135;28;20310;-65
2023/09/23 12:17:54;;;;;;;1.10;0.80;;;20.80;99.90;;;;;;5041989;28;20192;-67
2023/09/23 12:20:23;;;;;;;1.42;0.80;;;21.10;99.90;;;;;;5040949;28;20193;-66
2023/09/23 12:22:52;;;;;;;4.50;0.80;;;21.40;99.90;;;;;;5042238;28;20202;-65
2023/09/23 12:25:20;;;;;;;1.17;0.80;;;21.60;99.90;;;;;;5041453;28;20203;-65
2023/09/23 12:27:46;;;;;;;1.30;0.90;;;21.80;99.90;;;;;;5041504;28;20184;-64
2023/09/23 12:30:16;;;;;;;3.25;0.80;;;21.90;99.90;;;;;;5040608;28;20205;-65
2023/09/23 12:32:45;;;;;;;1.45;0.82;;;22.00;99.90;;;;;;5042300;28;20451;-66
2023/09/23 12:35:11;;;;;;;2.40;0.80;;;22.10;99.90;;;;;;5040958;28;20193;-65
2023/09/23 12:37:37;;;;;;;2.22;0.60;;;22.20;99.90;;;;;;5038309;28;20219;-65
2023/09/23 12:40:06;;;;;;;2.08;0.63;;;22.20;99.90;;;;;;5044131;28;20270;-65
2023/09/23 12:42:33;;;;;;;1.38;0.90;;;22.20;99.90;;;;;;5040433;28;20192;-65
2023/09/23 12:45:04;;;;;;;1.10;0.60;;;22.20;99.90;;;;;;5041781;28;20192;-65
2023/09/23 12:47:30;;;;;;;1.52;0.80;;;22.30;99.90;;;;;;5039710;28;20173;-66
2023/09/23 12:49:56;;;;;;;2.03;0.90;;;22.30;99.90;;;;;;5041647;28;20209;-66
2023/09/23 12:52:21;;;;;;;1.83;0.70;;;22.20;99.90;;;;;;5039120;28;20177;-66
2023/09/23 12:54:51;;;;;;;1.77;0.73;;;22.20;99.90;;;;;;5043810;28;20207;-66